East Burke, Vermont
Current Conditions -  °F | °C
As of 3:15 PM on Sunday 21 Dec 2014 (Local Time) from KCDA Reporting Station
Overcast Overcast  
Wind Chill: 25°   Ceiling: 1600
Heat Index: 25°   Visibility: 10mi
Dew Point: 19°   Wind: 0mph
Humidity: 80%   Direction: NA
Pressure: 30.29"   Gusts: NA
Location:  44.59°N, 71.94°W
Report Text: KCDA 212015Z AUTO 00000KT 10SM BKN016 OVC022 M04/M07 A3029 RMK AO2 T10401070
Loading
Personal Weather Stations






























Interactive Weather Map New forecast layout! Learn more

10-Day Weather Forecast

Advertisements
Track Severe Weather on mobile